Time;durP1;ratioP1;P1;durP2;ratioP2;P2;SDS_P1;SDS_P2;PMS_P1;PMS_P2;Temp;Humidity;BMP_temperature;BMP_pressure;BME280_temperature;BME280_humidity;BME280_pressure;Samples;Min_cycle;Max_cycle;Signal;HPM_P1;HPM_P2
2023/05/15 00:01:02;;;;;;;8.07;3.80;;;15.70;98.80;;;;;;4990214;28;20205;-76
2023/05/15 00:03:50;;;;;;;6.00;3.60;;;15.70;98.50;;;;;;4989748;28;20228;-74
2023/05/15 00:06:38;;;;;;;6.97;3.80;;;15.70;99.20;;;;;;4989516;28;20224;-76
2023/05/15 00:09:25;;;;;;;7.47;3.57;;;15.60;99.10;;;;;;4989950;28;20289;-78
2023/05/15 00:12:12;;;;;;;5.93;3.60;;;15.60;99.50;;;;;;5008671;28;20196;-81
2023/05/15 00:15:00;;;;;;;5.07;3.40;;;15.60;98.80;;;;;;5014017;28;20200;-77
2023/05/15 00:17:47;;;;;;;5.40;3.63;;;15.60;99.20;;;;;;5009137;28;20192;-76
2023/05/15 00:20:34;;;;;;;7.03;4.00;;;15.60;99.90;;;;;;5010918;28;20227;-81
2023/05/15 00:23:21;;;;;;;5.50;3.63;;;15.60;99.90;;;;;;5010091;28;20293;-84
2023/05/15 00:26:09;;;;;;;6.40;3.50;;;15.60;99.40;;;;;;5009765;28;20208;-80
2023/05/15 00:28:56;;;;;;;8.03;3.60;;;15.60;99.50;;;;;;5008419;28;20208;-79
2023/05/15 00:31:43;;;;;;;6.90;3.50;;;15.60;99.90;;;;;;5009752;28;20199;-79
2023/05/15 00:34:31;;;;;;;5.63;3.47;;;15.60;99.90;;;;;;5010619;28;20196;-82
2023/05/15 00:37:18;;;;;;;5.10;3.63;;;15.50;99.90;;;;;;5009336;28;20244;-81
2023/05/15 00:40:07;;;;;;;5.77;3.57;;;15.50;99.90;;;;;;5009378;28;20207;-83
2023/05/15 00:42:55;;;;;;;5.20;3.20;;;15.50;99.90;;;;;;5008992;28;20258;-81
2023/05/15 00:45:44;;;;;;;5.33;3.30;;;15.50;99.90;;;;;;5011334;28;20196;-81
2023/05/15 00:48:32;;;;;;;5.10;3.40;;;15.50;99.90;;;;;;5009646;28;20573;-83
2023/05/15 00:51:19;;;;;;;5.37;3.50;;;15.50;99.90;;;;;;5010342;28;20629;-79
2023/05/15 00:54:08;;;;;;;4.03;3.10;;;15.40;99.90;;;;;;5009314;28;20235;-84
2023/05/15 00:57:47;;;;;;;;;;;;;;;;;;;;;
2023/05/15 01:09:44;;;;;;;6.00;3.17;;;15.50;99.90;;;;;;4767026;30;20209;-79
2023/05/15 01:13:33;;;;;;;;;;;;;;;;;;;;;
2023/05/15 01:17:28;;;;;;;6.73;3.13;;;15.60;99.50;;;;;;4754024;30;20566;-81
2023/05/15 01:20:23;;;;;;;6.77;3.33;;;15.50;99.40;;;;;;4770209;30;20212;-82
2023/05/15 01:23:19;;;;;;;5.00;3.20;;;15.50;99.30;;;;;;4769993;30;20232;-80
2023/05/15 01:26:15;;;;;;;5.23;3.30;;;15.50;99.80;;;;;;4770248;30;20200;-84
2023/05/15 01:29:11;;;;;;;6.70;2.93;;;15.50;99.90;;;;;;4771652;30;20262;-81
2023/05/15 01:32:28;;;;;;;5.37;3.23;;;15.50;99.90;;;;;;4813686;29;20665;-81
2023/05/15 01:35:30;;;;;;;5.07;3.37;;;15.50;99.90;;;;;;4808670;29;20195;-83
2023/05/15 01:38:51;;;;;;;5.77;3.20;;;15.50;99.90;;;;;;4798236;29;20201;-81
2023/05/15 01:41:58;;;;;;;6.60;3.13;;;15.40;99.90;;;;;;4830805;29;20185;-87
2023/05/15 01:50:06;;;;;;;4.37;2.77;;;15.50;99.90;;;;;;4857953;29;20205;-80
2023/05/15 01:53:06;;;;;;;6.60;3.03;;;15.40;99.90;;;;;;4846529;29;20206;-84
2023/05/15 01:55:56;;;;;;;4.87;2.70;;;15.30;99.90;;;;;;4866725;29;20223;-84
2023/05/15 01:58:44;;;;;;;7.10;3.37;;;15.30;99.90;;;;;;4894296;29;20256;-80
2023/05/15 02:01:35;;;;;;;5.23;3.33;;;15.30;99.90;;;;;;4893337;29;20218;-85
2023/05/15 02:04:26;;;;;;;4.37;2.93;;;15.30;99.90;;;;;;4894238;29;20252;-82
2023/05/15 02:07:15;;;;;;;6.17;2.90;;;15.20;99.90;;;;;;4894810;29;20236;-85
2023/05/15 02:10:07;;;;;;;6.27;3.20;;;15.30;99.90;;;;;;4916186;29;20696;-81
2023/05/15 02:12:55;;;;;;;4.13;3.07;;;15.40;99.90;;;;;;4912904;29;20207;-82
2023/05/15 02:15:43;;;;;;;5.97;3.07;;;15.40;99.90;;;;;;4913276;29;20220;-81
2023/05/15 02:18:33;;;;;;;3.97;2.87;;;15.40;99.90;;;;;;4915023;29;20203;-80
2023/05/15 02:21:22;;;;;;;3.37;2.80;;;15.50;99.90;;;;;;4912673;29;20204;-80
2023/05/15 02:24:09;;;;;;;6.63;3.10;;;15.40;99.90;;;;;;4943587;28;20230;-79
2023/05/15 02:27:03;;;;;;;4.10;2.80;;;15.40;99.90;;;;;;4990827;28;20287;-79
2023/05/15 02:30:18;;;;;;;4.07;3.07;;;15.40;99.90;;;;;;4990097;28;21009;-81
2023/05/15 02:33:37;;;;;;;8.50;3.23;;;15.40;99.90;;;;;;4992235;28;20211;-80
2023/05/15 02:36:31;;;;;;;7.37;3.17;;;15.50;99.90;;;;;;4990736;28;20189;-82
2023/05/15 02:39:22;;;;;;;5.00;2.90;;;15.40;99.90;;;;;;4990638;28;20197;-81
2023/05/15 02:42:12;;;;;;;5.73;3.20;;;15.40;99.90;;;;;;4991384;28;21213;-84
2023/05/15 02:45:09;;;;;;;6.47;3.00;;;15.30;99.90;;;;;;4991826;28;20208;-81
2023/05/15 02:48:36;;;;;;;6.57;3.23;;;15.30;99.90;;;;;;4993053;28;20316;-86
2023/05/15 02:51:32;;;;;;;4.43;2.87;;;15.40;99.90;;;;;;4991313;28;20207;-81
2023/05/15 02:54:24;;;;;;;4.30;3.03;;;15.40;99.90;;;;;;4991263;28;20232;-82
2023/05/15 02:57:11;;;;;;;5.87;3.07;;;15.30;99.90;;;;;;4989634;28;20224;-82
2023/05/15 02:59:58;;;;;;;5.07;2.90;;;15.30;99.90;;;;;;4990564;28;20266;-83
2023/05/15 03:02:45;;;;;;;4.53;2.83;;;15.30;99.90;;;;;;4999074;28;20255;-83
2023/05/15 03:05:32;;;;;;;5.83;3.57;;;15.30;99.90;;;;;;4990876;28;20263;-82
2023/05/15 03:08:21;;;;;;;4.80;3.10;;;15.30;99.90;;;;;;4999296;28;20807;-83
2023/05/15 03:11:08;;;;;;;3.70;2.93;;;15.30;99.90;;;;;;5010889;28;20305;-83
2023/05/15 03:13:55;;;;;;;6.10;3.07;;;15.20;99.90;;;;;;5010071;28;20653;-85
2023/05/15 03:16:42;;;;;;;4.97;3.20;;;15.20;99.90;;;;;;5010519;28;20692;-82
2023/05/15 03:19:30;;;;;;;4.10;3.07;;;15.20;99.90;;;;;;5011956;28;20278;-85
2023/05/15 03:22:35;;;;;;;4.40;3.00;;;15.20;99.90;;;;;;5011789;28;20200;-87
2023/05/15 03:25:26;;;;;;;4.57;3.10;;;15.20;99.90;;;;;;5009025;28;20302;-84
2023/05/15 03:28:16;;;;;;;7.37;3.40;;;15.10;99.90;;;;;;5011674;28;20203;-81
2023/05/15 03:31:07;;;;;;;6.03;3.10;;;15.20;99.90;;;;;;5009627;28;20215;-78
2023/05/15 03:33:54;;;;;;;7.67;3.03;;;15.20;99.90;;;;;;5011228;28;20192;-82
2023/05/15 03:36:41;;;;;;;5.90;3.10;;;15.20;99.90;;;;;;5010269;28;20203;-82
2023/05/15 03:39:29;;;;;;;5.73;3.00;;;15.20;99.90;;;;;;5009201;28;20346;-80
2023/05/15 03:42:22;;;;;;;8.43;3.40;;;15.30;99.90;;;;;;5014613;28;20211;-80
2023/05/15 03:45:12;;;;;;;5.60;3.13;;;15.30;99.90;;;;;;4996063;28;20202;-80
2023/05/15 03:48:14;;;;;;;4.73;3.50;;;15.30;99.90;;;;;;5015003;28;20200;-82
2023/05/15 03:51:07;;;;;;;6.77;3.33;;;15.20;99.90;;;;;;5008545;28;20196;-79
2023/05/15 03:54:10;;;;;;;5.50;2.90;;;15.30;99.90;;;;;;5009803;28;20242;-86
2023/05/15 03:57:16;;;;;;;5.13;3.07;;;15.20;99.90;;;;;;5013247;28;20671;-81
2023/05/15 04:00:09;;;;;;;4.70;3.30;;;15.30;99.90;;;;;;5009303;28;20282;-84
2023/05/15 04:02:57;;;;;;;6.97;3.40;;;15.30;99.90;;;;;;4995941;28;20226;-81
2023/05/15 04:06:21;;;;;;;5.73;3.10;;;15.30;99.90;;;;;;5009611;28;20191;-82
2023/05/15 04:09:10;;;;;;;5.80;3.70;;;15.30;99.90;;;;;;4990161;28;20225;-78
2023/05/15 04:11:57;;;;;;;5.77;3.17;;;15.30;99.90;;;;;;5004691;28;20235;-88
2023/05/15 04:14:44;;;;;;;7.10;3.33;;;15.20;99.90;;;;;;4992408;28;20205;-88
2023/05/15 04:17:31;;;;;;;6.03;3.40;;;15.20;99.90;;;;;;4991554;28;20204;-86
2023/05/15 04:20:21;;;;;;;7.80;3.70;;;15.20;99.90;;;;;;4991581;28;20205;-85
2023/05/15 04:23:08;;;;;;;9.70;3.70;;;15.10;99.90;;;;;;4992157;28;20212;-87
2023/05/15 04:25:55;;;;;;;8.40;3.53;;;15.20;99.90;;;;;;4990967;28;20207;-84
2023/05/15 04:28:51;;;;;;;5.73;3.30;;;15.20;99.90;;;;;;4991367;28;20720;-87
2023/05/15 04:31:50;;;;;;;6.03;3.40;;;15.20;99.90;;;;;;4990553;28;20205;-83
2023/05/15 04:34:46;;;;;;;7.43;3.60;;;15.10;99.90;;;;;;4991730;28;20283;-89
2023/05/15 04:37:36;;;;;;;5.57;3.37;;;15.20;99.90;;;;;;4992687;28;20639;-85
2023/05/15 04:40:23;;;;;;;6.13;3.43;;;15.20;99.90;;;;;;4996713;28;20574;-89
2023/05/15 04:43:10;;;;;;;5.70;3.37;;;15.10;99.90;;;;;;4997109;28;20232;-81
2023/05/15 04:45:57;;;;;;;6.33;3.53;;;15.10;99.90;;;;;;4991255;28;20208;-86
2023/05/15 04:48:44;;;;;;;7.17;3.17;;;15.10;99.90;;;;;;4996338;28;20208;-83
2023/05/15 04:51:32;;;;;;;6.40;3.37;;;15.10;99.90;;;;;;4992000;28;20219;-85
2023/05/15 04:54:19;;;;;;;6.20;3.60;;;15.10;99.90;;;;;;4991959;28;20228;-84
2023/05/15 04:57:07;;;;;;;6.07;3.70;;;15.10;99.90;;;;;;4989318;28;20276;-84
2023/05/15 04:59:54;;;;;;;9.50;3.27;;;15.20;99.90;;;;;;4990006;28;20215;-82
2023/05/15 05:02:42;;;;;;;8.30;3.60;;;15.20;99.90;;;;;;4991925;28;20201;-84
2023/05/15 05:05:30;;;;;;;5.20;3.40;;;15.30;99.90;;;;;;4995249;28;20209;-85
2023/05/15 05:08:17;;;;;;;8.27;4.27;;;15.20;99.90;;;;;;5002794;28;20598;-85
2023/05/15 05:11:04;;;;;;;4.23;3.40;;;15.30;99.90;;;;;;5016428;28;20803;-87
2023/05/15 05:13:52;;;;;;;4.37;3.10;;;15.30;99.90;;;;;;4997794;28;20200;-83
2023/05/15 05:16:40;;;;;;;3.90;3.10;;;15.30;99.90;;;;;;5012896;28;20291;-83
2023/05/15 05:19:27;;;;;;;4.90;3.20;;;15.40;99.90;;;;;;5011576;28;20264;-82
2023/05/15 05:22:14;;;;;;;4.00;3.10;;;15.30;99.90;;;;;;5013141;28;20571;-82
2023/05/15 05:25:01;;;;;;;5.53;3.43;;;15.40;99.90;;;;;;5012491;28;20224;-84
2023/05/15 05:27:48;;;;;;;5.10;3.47;;;15.50;99.90;;;;;;5012407;28;20578;-83
2023/05/15 05:30:36;;;;;;;4.97;3.33;;;15.50;99.90;;;;;;5013429;28;20658;-83
2023/05/15 05:33:26;;;;;;;6.83;3.20;;;15.50;99.90;;;;;;5013919;28;20195;-85
2023/05/15 05:36:13;;;;;;;5.97;3.20;;;15.60;99.90;;;;;;5011201;28;20208;-86
2023/05/15 05:39:00;;;;;;;5.27;3.37;;;15.60;99.90;;;;;;5014152;28;20262;-84
2023/05/15 05:41:47;;;;;;;7.73;3.30;;;15.60;99.90;;;;;;5012727;28;20286;-82
2023/05/15 05:44:34;;;;;;;7.70;3.40;;;15.60;99.90;;;;;;5011917;28;20216;-82
2023/05/15 05:47:21;;;;;;;6.33;3.47;;;15.70;99.90;;;;;;5012589;28;20196;-84
2023/05/15 05:50:11;;;;;;;5.47;3.50;;;15.60;99.90;;;;;;5012114;28;20200;-83
2023/05/15 05:52:59;;;;;;;9.03;3.40;;;15.60;99.90;;;;;;5011088;28;20206;-83
2023/05/15 05:55:46;;;;;;;5.33;3.30;;;15.60;99.90;;;;;;4999039;28;20243;-81
2023/05/15 05:58:33;;;;;;;5.13;3.57;;;15.60;99.90;;;;;;5012982;28;20197;-83
2023/05/15 06:01:21;;;;;;;5.87;3.50;;;15.70;99.90;;;;;;4999638;28;20204;-84
2023/05/15 06:04:08;;;;;;;6.20;4.07;;;15.60;99.90;;;;;;5001000;28;20239;-83
2023/05/15 06:07:08;;;;;;;10.70;3.83;;;15.60;99.90;;;;;;5003516;28;20280;-85
2023/05/15 06:10:00;;;;;;;6.60;3.50;;;15.60;99.90;;;;;;5013658;28;20200;-78
2023/05/15 06:12:47;;;;;;;6.80;3.70;;;15.60;99.90;;;;;;5011411;28;20236;-78
2023/05/15 06:15:34;;;;;;;5.67;3.40;;;15.50;99.90;;;;;;5011594;28;20221;-78
2023/05/15 06:18:22;;;;;;;7.83;4.20;;;15.40;99.90;;;;;;5010525;28;20219;-75
2023/05/15 06:21:10;;;;;;;6.27;4.00;;;15.40;99.90;;;;;;5009396;28;20212;-76
2023/05/15 06:23:58;;;;;;;7.07;4.10;;;15.40;99.90;;;;;;5010494;28;20325;-75
2023/05/15 06:26:46;;;;;;;5.53;3.90;;;15.20;99.90;;;;;;4997493;28;20239;-75
2023/05/15 06:29:49;;;;;;;8.40;4.40;;;15.20;99.90;;;;;;4996968;28;20539;-77
2023/05/15 06:32:43;;;;;;;8.60;4.00;;;15.10;99.90;;;;;;5010983;28;20257;-76
2023/05/15 06:35:30;;;;;;;6.80;4.23;;;15.00;99.90;;;;;;4997482;28;20321;-74
2023/05/15 06:38:17;;;;;;;7.97;4.33;;;14.90;99.90;;;;;;5010430;28;20196;-79
2023/05/15 06:41:05;;;;;;;8.83;4.63;;;14.90;99.90;;;;;;5012104;28;20561;-77
2023/05/15 06:43:52;;;;;;;5.63;4.20;;;14.80;99.90;;;;;;5011231;28;20226;-75
2023/05/15 06:46:39;;;;;;;6.80;4.77;;;14.60;99.90;;;;;;5012039;28;20431;-76
2023/05/15 06:49:27;;;;;;;7.67;5.20;;;14.60;99.90;;;;;;5010924;28;20318;-75
2023/05/15 06:52:14;;;;;;;6.97;4.83;;;14.50;99.90;;;;;;5009878;28;20195;-80
2023/05/15 06:55:02;;;;;;;8.30;5.03;;;14.50;99.90;;;;;;5011154;28;20224;-79
2023/05/15 06:57:49;;;;;;;10.33;5.60;;;14.40;99.90;;;;;;5009167;28;20334;-78
2023/05/15 07:00:37;;;;;;;8.13;5.17;;;14.30;99.90;;;;;;5010989;28;20197;-78
2023/05/15 07:03:24;;;;;;;7.73;5.43;;;14.10;99.90;;;;;;5011332;28;20505;-79
2023/05/15 07:06:11;;;;;;;10.27;5.60;;;14.00;99.90;;;;;;5012739;28;20203;-78
2023/05/15 07:08:59;;;;;;;8.73;5.30;;;14.00;99.90;;;;;;5012360;28;20362;-78
2023/05/15 07:11:47;;;;;;;9.57;5.57;;;13.80;99.90;;;;;;5011384;28;20333;-76
2023/05/15 07:14:34;;;;;;;9.83;6.07;;;13.80;99.90;;;;;;5011560;28;20211;-78
2023/05/15 07:17:21;;;;;;;10.87;5.80;;;13.80;99.90;;;;;;5010895;28;20207;-79
2023/05/15 07:20:09;;;;;;;10.93;6.40;;;13.80;99.90;;;;;;5009866;28;20192;-82
2023/05/15 07:22:56;;;;;;;9.67;6.33;;;13.80;99.90;;;;;;5011051;28;20223;-77
2023/05/15 07:25:43;;;;;;;17.93;10.83;;;13.70;99.90;;;;;;5008853;28;20192;-77
2023/05/15 07:28:46;;;;;;;22.67;14.57;;;13.70;99.90;;;;;;5009364;28;20654;-80
2023/05/15 07:31:40;;;;;;;12.73;7.17;;;13.80;99.90;;;;;;4996729;28;20200;-80
2023/05/15 07:34:28;;;;;;;12.10;6.73;;;13.80;99.90;;;;;;4996312;28;20204;-80
2023/05/15 07:37:15;;;;;;;13.40;6.77;;;13.90;99.90;;;;;;5010856;28;20200;-80
2023/05/15 07:40:19;;;;;;;9.60;6.10;;;14.00;99.90;;;;;;4996073;28;20210;-78
2023/05/15 07:43:07;;;;;;;8.90;6.20;;;14.10;99.90;;;;;;4996018;28;20196;-80
2023/05/15 07:45:58;;;;;;;9.30;6.73;;;14.00;99.90;;;;;;4996005;28;20189;-78
2023/05/15 07:48:45;;;;;;;8.90;6.40;;;14.00;99.90;;;;;;4995038;28;20630;-74
2023/05/15 07:51:33;;;;;;;8.60;6.10;;;14.00;99.90;;;;;;4995712;28;20188;-79
2023/05/15 07:54:20;;;;;;;8.83;6.30;;;14.10;99.90;;;;;;5010840;28;20330;-78
2023/05/15 07:57:09;;;;;;;11.03;6.57;;;14.00;99.90;;;;;;5010842;28;20203;-80
2023/05/15 07:59:56;;;;;;;8.47;7.00;;;14.10;99.90;;;;;;4995674;28;20420;-76
2023/05/15 08:02:45;;;;;;;9.43;7.00;;;14.30;99.90;;;;;;5010781;28;20201;-81
2023/05/15 08:05:32;;;;;;;8.47;6.83;;;14.40;99.90;;;;;;5010733;28;20224;-73
2023/05/15 08:08:20;;;;;;;10.43;7.10;;;14.50;99.90;;;;;;5009875;28;20684;-77
2023/05/15 08:11:07;;;;;;;14.70;7.60;;;14.60;99.90;;;;;;5010904;28;20283;-79
2023/05/15 08:13:58;;;;;;;10.33;6.80;;;14.50;99.90;;;;;;5010592;28;20615;-76
2023/05/15 08:16:45;;;;;;;10.00;6.83;;;14.60;99.90;;;;;;5010305;28;20211;-76
2023/05/15 08:19:32;;;;;;;12.10;7.77;;;14.50;99.90;;;;;;4994761;28;20195;-79
2023/05/15 08:22:23;;;;;;;14.83;7.97;;;14.50;99.90;;;;;;5010749;28;20238;-77
2023/05/15 08:25:13;;;;;;;11.57;6.97;;;14.60;99.90;;;;;;5008673;28;20704;-78
2023/05/15 08:28:01;;;;;;;10.77;7.53;;;14.50;99.90;;;;;;5009839;28;20230;-76
2023/05/15 08:30:48;;;;;;;10.17;7.00;;;14.60;99.90;;;;;;5008793;28;20207;-76
2023/05/15 08:33:36;;;;;;;13.47;7.10;;;14.50;99.90;;;;;;4994770;28;20211;-73
2023/05/15 08:36:23;;;;;;;9.77;6.67;;;14.50;99.90;;;;;;5010201;28;20676;-77
2023/05/15 08:39:13;;;;;;;10.07;7.03;;;14.40;99.90;;;;;;5013981;28;20200;-75
2023/05/15 08:42:14;;;;;;;10.27;7.27;;;14.50;99.90;;;;;;4999911;28;20578;-76
2023/05/15 08:45:02;;;;;;;10.73;6.80;;;14.40;99.90;;;;;;5014234;28;20722;-73
2023/05/15 08:47:49;;;;;;;12.30;7.07;;;14.50;99.90;;;;;;5013873;28;20225;-74
2023/05/15 08:50:39;;;;;;;8.90;6.93;;;14.30;99.90;;;;;;5014371;28;20363;-75
2023/05/15 08:53:28;;;;;;;9.53;6.83;;;14.20;99.90;;;;;;5014121;28;20512;-76
2023/05/15 08:56:17;;;;;;;9.73;6.70;;;14.10;99.90;;;;;;4998729;28;20204;-77
2023/05/15 08:59:05;;;;;;;10.53;7.30;;;13.90;99.90;;;;;;4998734;28;20203;-76
2023/05/15 09:01:53;;;;;;;11.63;7.50;;;13.70;99.90;;;;;;4998873;28;20231;-75
2023/05/15 09:04:41;;;;;;;11.23;7.70;;;13.60;99.90;;;;;;4999186;28;20319;-77
2023/05/15 09:07:32;;;;;;;12.27;7.80;;;13.40;99.90;;;;;;5013411;28;20553;-72
2023/05/15 09:10:25;;;;;;;9.57;7.40;;;13.30;99.90;;;;;;5014036;28;20208;-80
2023/05/15 09:13:30;;;;;;;11.20;7.63;;;13.20;99.90;;;;;;5011498;28;20196;-75
2023/05/15 09:16:19;;;;;;;9.83;7.67;;;13.20;99.90;;;;;;5013192;28;20200;-80
2023/05/15 09:19:07;;;;;;;10.83;8.27;;;13.10;99.90;;;;;;5012732;28;20196;-73
2023/05/15 09:22:29;;;;;;;13.97;8.30;;;13.10;99.90;;;;;;5012627;28;20263;-81
2023/05/15 09:25:38;;;;;;;13.00;8.77;;;13.20;99.90;;;;;;4997990;28;20278;-79
2023/05/15 09:28:28;;;;;;;15.30;8.80;;;13.10;99.90;;;;;;5012055;28;20609;-80
2023/05/15 09:31:19;;;;;;;10.90;9.43;;;13.20;99.90;;;;;;5011652;28;20640;-79
2023/05/15 09:34:08;;;;;;;10.93;8.90;;;13.10;99.90;;;;;;5012430;28;20210;-81
2023/05/15 09:36:55;;;;;;;12.43;8.50;;;13.00;99.90;;;;;;5011889;28;20196;-77
2023/05/15 09:39:43;;;;;;;14.50;8.83;;;13.00;99.90;;;;;;5012297;28;20649;-77
2023/05/15 09:42:34;;;;;;;11.57;8.63;;;12.80;99.90;;;;;;5012625;28;20633;-80
2023/05/15 09:45:21;;;;;;;11.27;8.73;;;12.90;99.90;;;;;;5010692;28;20232;-81
2023/05/15 09:48:10;;;;;;;14.03;9.37;;;12.90;99.90;;;;;;5011630;28;20312;-72
2023/05/15 09:50:58;;;;;;;14.53;9.27;;;12.80;99.90;;;;;;5011963;28;20200;-81
2023/05/15 09:53:51;;;;;;;11.90;9.23;;;12.90;99.90;;;;;;5012520;28;20216;-81
2023/05/15 09:56:41;;;;;;;14.33;9.30;;;12.90;99.90;;;;;;5012360;28;20592;-78
2023/05/15 09:59:28;;;;;;;14.77;9.10;;;12.90;99.90;;;;;;5011617;28;20646;-81
2023/05/15 10:02:33;;;;;;;12.97;9.93;;;13.00;99.90;;;;;;5011394;28;20204;-78
2023/05/15 10:05:25;;;;;;;14.73;9.90;;;13.00;99.90;;;;;;5012993;28;20303;-79
2023/05/15 10:08:28;;;;;;;14.13;10.10;;;13.10;99.90;;;;;;5011618;28;20259;-81
2023/05/15 10:11:17;;;;;;;12.30;9.43;;;13.20;99.90;;;;;;5012325;28;20213;-81
2023/05/15 10:14:06;;;;;;;15.47;9.83;;;13.20;99.90;;;;;;5011256;28;20200;-80
2023/05/15 10:16:55;;;;;;;11.87;9.40;;;13.20;99.90;;;;;;5011636;28;20223;-79
2023/05/15 10:19:43;;;;;;;13.23;9.77;;;13.20;99.90;;;;;;5012257;28;20215;-75
2023/05/15 10:22:50;;;;;;;14.33;9.80;;;13.20;99.90;;;;;;5012335;28;20202;-82
2023/05/15 10:26:02;;;;;;;16.70;10.50;;;13.30;99.90;;;;;;4997512;28;20302;-81
2023/05/15 10:28:51;;;;;;;12.53;9.90;;;13.30;99.90;;;;;;5010137;28;20670;-82
2023/05/15 10:31:39;;;;;;;14.23;10.10;;;13.20;99.90;;;;;;5011698;28;20591;-82
2023/05/15 10:34:27;;;;;;;13.53;10.33;;;13.20;99.90;;;;;;5010350;28;20194;-79
2023/05/15 10:37:15;;;;;;;13.13;9.93;;;13.10;99.90;;;;;;5011030;28;20558;-81
2023/05/15 10:40:05;;;;;;;16.73;11.50;;;13.10;99.90;;;;;;5011624;28;20200;-85
2023/05/15 10:42:54;;;;;;;13.47;11.00;;;13.00;99.90;;;;;;4999511;28;20204;-78
2023/05/15 10:45:42;;;;;;;15.10;11.20;;;13.00;99.90;;;;;;4997823;28;20224;-83
2023/05/15 10:48:32;;;;;;;15.13;10.90;;;12.90;99.90;;;;;;5011035;28;20200;-80
2023/05/15 10:51:27;;;;;;;17.70;11.70;;;12.90;99.90;;;;;;5011758;28;20645;-81
2023/05/15 10:54:14;;;;;;;17.50;11.80;;;12.90;99.90;;;;;;5012056;28;20251;-86
2023/05/15 10:57:01;;;;;;;15.83;11.67;;;12.90;99.90;;;;;;5010764;28;20223;-71
2023/05/15 10:59:49;;;;;;;17.40;11.53;;;12.90;99.90;;;;;;5011381;28;20200;-81
2023/05/15 11:02:37;;;;;;;17.33;11.80;;;12.90;99.90;;;;;;5010889;28;20188;-89
2023/05/15 11:05:25;;;;;;;14.80;11.47;;;12.90;99.90;;;;;;5019038;28;20228;-87
2023/05/15 11:08:18;;;;;;;14.87;11.40;;;12.80;99.90;;;;;;5019460;28;20231;-90
2023/05/15 11:11:05;;;;;;;19.23;12.33;;;12.80;99.90;;;;;;5018398;28;20215;-90
2023/05/15 11:14:04;;;;;;;16.70;11.87;;;12.80;99.90;;;;;;5014822;28;20188;-86
2023/05/15 11:16:51;;;;;;;16.57;11.77;;;12.70;99.90;;;;;;5019540;28;20203;-86
2023/05/15 11:19:54;;;;;;;19.80;12.50;;;12.70;99.90;;;;;;5021394;28;20210;-84
2023/05/15 11:22:41;;;;;;;14.13;11.27;;;12.80;99.90;;;;;;5011095;28;20191;-81
2023/05/15 11:25:32;;;;;;;15.23;11.63;;;12.70;99.90;;;;;;5013046;28;20298;-85
2023/05/15 11:28:24;;;;;;;18.47;12.10;;;12.60;99.90;;;;;;5010936;28;20210;-83
2023/05/15 11:31:12;;;;;;;15.80;11.73;;;12.60;99.90;;;;;;5010845;28;20208;-82
2023/05/15 11:34:04;;;;;;;15.03;11.67;;;12.60;99.90;;;;;;5010385;28;20207;-83
2023/05/15 11:36:51;;;;;;;19.13;12.53;;;12.60;99.90;;;;;;5010562;28;20196;-79
2023/05/15 11:39:39;;;;;;;15.47;12.47;;;12.50;99.90;;;;;;5010955;28;20203;-83
2023/05/15 11:42:27;;;;;;;16.37;12.70;;;12.50;99.90;;;;;;5010927;28;20207;-85
2023/05/15 11:45:14;;;;;;;16.40;12.70;;;12.60;99.90;;;;;;5011388;28;20220;-84
2023/05/15 11:48:04;;;;;;;16.63;12.83;;;12.50;99.90;;;;;;5016581;28;20204;-86
2023/05/15 11:50:52;;;;;;;16.00;12.83;;;12.50;99.90;;;;;;4996435;28;20231;-75
2023/05/15 11:53:40;;;;;;;15.17;12.80;;;12.50;99.90;;;;;;5011422;28;20196;-82
2023/05/15 11:56:28;;;;;;;17.43;13.17;;;12.50;99.90;;;;;;5011360;28;20204;-73
2023/05/15 11:59:15;;;;;;;14.60;12.63;;;12.50;99.90;;;;;;5011182;28;20192;-79
2023/05/15 12:02:05;;;;;;;16.13;12.97;;;12.60;99.90;;;;;;5008475;28;20642;-80
2023/05/15 12:04:52;;;;;;;17.53;13.60;;;12.60;99.90;;;;;;5008950;28;20301;-79
2023/05/15 12:07:43;;;;;;;15.37;13.10;;;12.60;99.90;;;;;;5010490;28;20740;-75
2023/05/15 12:10:30;;;;;;;18.03;13.13;;;12.70;99.90;;;;;;5010427;28;20589;-76
2023/05/15 12:13:17;;;;;;;19.00;14.13;;;12.70;99.90;;;;;;4996026;28;20200;-82
2023/05/15 12:16:05;;;;;;;17.80;13.53;;;12.60;99.90;;;;;;5010824;28;20211;-85
2023/05/15 12:18:55;;;;;;;16.23;14.07;;;12.60;99.90;;;;;;5010395;28;20339;-85
2023/05/15 12:21:45;;;;;;;17.67;13.90;;;12.60;99.90;;;;;;5013426;28;20654;-77
2023/05/15 12:24:36;;;;;;;18.80;14.37;;;12.70;99.90;;;;;;5011678;28;20192;-80
2023/05/15 12:27:23;;;;;;;17.33;13.87;;;12.70;99.90;;;;;;5012971;28;20210;-86
2023/05/15 12:30:12;;;;;;;18.57;14.80;;;12.80;99.90;;;;;;5010368;28;20196;-81
2023/05/15 12:33:02;;;;;;;18.80;14.10;;;12.80;99.90;;;;;;5011793;28;20206;-82
2023/05/15 12:35:53;;;;;;;18.17;13.77;;;12.70;99.90;;;;;;5010172;28;20658;-84
2023/05/15 12:38:42;;;;;;;20.67;15.10;;;12.70;99.90;;;;;;5010394;28;20227;-84
2023/05/15 12:41:30;;;;;;;19.17;15.60;;;12.70;99.90;;;;;;5009507;28;20212;-77
2023/05/15 12:44:18;;;;;;;18.73;15.27;;;12.80;99.90;;;;;;4994714;28;20204;-86
2023/05/15 12:47:06;;;;;;;18.97;14.90;;;12.80;99.90;;;;;;5008036;28;20203;-81
2023/05/15 12:49:56;;;;;;;18.30;15.33;;;12.80;99.90;;;;;;5008443;28;20204;-81
2023/05/15 12:52:46;;;;;;;20.70;15.60;;;12.80;99.90;;;;;;5008338;28;20219;-83
2023/05/15 12:55:35;;;;;;;18.70;14.77;;;12.80;99.90;;;;;;5007985;28;20231;-84
2023/05/15 12:58:22;;;;;;;20.63;16.30;;;12.80;99.90;;;;;;5009822;28;20192;-83
2023/05/15 13:01:11;;;;;;;20.80;15.73;;;12.80;99.90;;;;;;4995291;28;20553;-82
2023/05/15 13:03:59;;;;;;;21.47;16.73;;;12.90;99.90;;;;;;5008463;28;20571;-84
2023/05/15 13:06:48;;;;;;;22.73;16.67;;;12.90;99.90;;;;;;5008935;28;20353;-82
2023/05/15 13:09:35;;;;;;;19.03;14.43;;;12.90;99.90;;;;;;5008439;28;20678;-79
2023/05/15 13:12:23;;;;;;;20.27;16.17;;;12.90;99.90;;;;;;5008360;28;20210;-83
2023/05/15 13:15:25;;;;;;;22.43;16.80;;;12.90;99.90;;;;;;5007702;28;20208;-80
2023/05/15 13:18:13;;;;;;;21.10;16.97;;;12.90;99.90;;;;;;5010471;28;20206;-82
2023/05/15 13:21:00;;;;;;;23.57;17.03;;;12.90;99.90;;;;;;5008690;28;20204;-82
2023/05/15 13:23:48;;;;;;;21.93;16.33;;;13.00;99.90;;;;;;5010808;28;20255;-81
2023/05/15 13:26:36;;;;;;;22.70;16.93;;;13.00;99.90;;;;;;5012909;28;20224;-83
2023/05/15 13:29:23;;;;;;;19.23;15.77;;;13.10;99.90;;;;;;5013384;28;20211;-75
2023/05/15 13:32:10;;;;;;;20.93;15.87;;;13.10;99.90;;;;;;5013947;28;20200;-80
2023/05/15 13:34:57;;;;;;;21.33;15.40;;;13.10;99.90;;;;;;4999209;28;20196;-82
2023/05/15 13:37:45;;;;;;;19.57;16.13;;;13.10;99.90;;;;;;5013190;28;20677;-79
2023/05/15 13:40:35;;;;;;;22.00;15.63;;;13.10;99.90;;;;;;5011309;28;20188;-83
2023/05/15 13:43:22;;;;;;;21.23;15.63;;;13.10;99.90;;;;;;5011499;28;20199;-76
2023/05/15 13:46:12;;;;;;;21.57;16.53;;;13.30;99.90;;;;;;5011448;28;20227;-83
2023/05/15 13:48:59;;;;;;;20.80;16.07;;;13.40;99.90;;;;;;5013989;28;20536;-83
2023/05/15 13:51:47;;;;;;;20.17;15.90;;;13.60;99.90;;;;;;5013214;28;20562;-81
2023/05/15 13:54:34;;;;;;;19.30;14.90;;;13.70;99.90;;;;;;5010851;28;20228;-85
2023/05/15 13:57:21;;;;;;;18.77;14.20;;;13.70;99.90;;;;;;5011215;28;20211;-83
2023/05/15 14:00:12;;;;;;;18.37;14.07;;;13.70;99.90;;;;;;5011997;28;20219;-83
2023/05/15 14:03:00;;;;;;;18.83;13.97;;;13.80;99.90;;;;;;5012167;28;20673;-84
2023/05/15 14:05:47;;;;;;;16.33;12.40;;;13.80;99.90;;;;;;5011976;28;20223;-83
2023/05/15 14:08:34;;;;;;;17.03;13.03;;;13.80;99.90;;;;;;5013048;28;20239;-75
2023/05/15 14:11:21;;;;;;;15.63;12.13;;;13.90;99.90;;;;;;5011933;28;20204;-82
2023/05/15 14:14:09;;;;;;;15.43;12.17;;;13.90;99.90;;;;;;4998072;28;20200;-82
2023/05/15 14:16:56;;;;;;;16.13;12.27;;;13.90;99.90;;;;;;5012122;28;20207;-83
2023/05/15 14:19:43;;;;;;;17.03;12.87;;;13.90;99.90;;;;;;5013361;28;20204;-79
2023/05/15 14:22:31;;;;;;;16.73;12.90;;;13.90;99.90;;;;;;5012371;28;20203;-78
2023/05/15 14:25:18;;;;;;;16.83;12.40;;;14.00;99.90;;;;;;5012474;28;20211;-79
2023/05/15 14:28:05;;;;;;;14.27;12.13;;;14.00;99.90;;;;;;5012141;28;20214;-80
2023/05/15 14:30:52;;;;;;;17.17;13.30;;;14.00;99.90;;;;;;5013176;28;20196;-80
2023/05/15 14:33:40;;;;;;;17.57;12.23;;;14.00;99.90;;;;;;5010902;28;20210;-78
2023/05/15 14:36:27;;;;;;;15.97;13.47;;;14.10;99.90;;;;;;5009708;28;20204;-81
2023/05/15 14:39:14;;;;;;;17.47;13.13;;;14.10;99.90;;;;;;5012224;28;20204;-74
2023/05/15 14:42:02;;;;;;;18.03;14.00;;;14.10;99.90;;;;;;5012887;28;20207;-82
2023/05/15 14:45:14;;;;;;;18.00;13.37;;;14.20;99.90;;;;;;5010350;28;20211;-76
2023/05/15 14:48:03;;;;;;;18.27;12.97;;;14.10;99.90;;;;;;5011610;28;20196;-82
2023/05/15 14:50:51;;;;;;;18.93;13.27;;;14.10;99.90;;;;;;5009350;28;20239;-82
2023/05/15 14:53:44;;;;;;;17.63;13.33;;;14.10;99.90;;;;;;5010596;28;20199;-83
2023/05/15 14:56:46;;;;;;;16.37;13.00;;;14.10;99.90;;;;;;5010836;28;20223;-80